sensor_id;sensor_type;location;lat;lon;timestamp;temperature;humidity
935;DHT22;454;53.254;10.400;2023-05-20T04:00:28;9.40;99.90
935;DHT22;454;53.254;10.400;2023-05-20T04:02:56;9.40;99.90
935;DHT22;454;53.254;10.400;2023-05-20T04:05:22;9.40;99.90
935;DHT22;454;53.254;10.400;2023-05-20T04:07:50;9.50;99.90
935;DHT22;454;53.254;10.400;2023-05-20T04:10:18;9.50;99.90
935;DHT22;454;53.254;10.400;2023-05-20T04:12:44;9.50;99.90
935;DHT22;454;53.254;10.400;2023-05-20T04:17:43;9.60;99.90
935;DHT22;454;53.254;10.400;2023-05-20T04:20:13;9.70;99.90
935;DHT22;454;53.254;10.400;2023-05-20T04:22:39;9.70;99.90
935;DHT22;454;53.254;10.400;2023-05-20T04:25:07;9.90;99.90
935;DHT22;454;53.254;10.400;2023-05-20T04:27:34;10.10;99.90
935;DHT22;454;53.254;10.400;2023-05-20T04:30:02;10.40;99.90
935;DHT22;454;53.254;10.400;2023-05-20T04:32:29;10.60;99.90
935;DHT22;454;53.254;10.400;2023-05-20T04:34:57;10.90;99.90
935;DHT22;454;53.254;10.400;2023-05-20T04:37:24;11.10;99.90
935;DHT22;454;53.254;10.400;2023-05-20T04:39:51;11.10;99.90
935;DHT22;454;53.254;10.400;2023-05-20T04:42:18;11.40;99.90
935;DHT22;454;53.254;10.400;2023-05-20T04:44:46;11.50;99.90
935;DHT22;454;53.254;10.400;2023-05-20T04:47:13;11.60;99.90
935;DHT22;454;53.254;10.400;2023-05-20T04:49:40;11.70;99.90
935;DHT22;454;53.254;10.400;2023-05-20T04:52:09;11.70;99.90
935;DHT22;454;53.254;10.400;2023-05-20T04:54:35;11.80;99.90
935;DHT22;454;53.254;10.400;2023-05-20T04:57:03;11.80;99.90
935;DHT22;454;53.254;10.400;2023-05-20T04:59:30;11.80;99.90
935;DHT22;454;53.254;10.400;2023-05-20T05:01:56;11.90;99.90
935;DHT22;454;53.254;10.400;2023-05-20T05:04:23;11.80;99.90
935;DHT22;454;53.254;10.400;2023-05-20T05:06:50;11.90;99.90
935;DHT22;454;53.254;10.400;2023-05-20T05:09:18;12.00;99.90
935;DHT22;454;53.254;10.400;2023-05-20T05:11:44;12.10;99.90
935;DHT22;454;53.254;10.400;2023-05-20T05:14:11;12.30;99.90
935;DHT22;454;53.254;10.400;2023-05-20T05:16:38;12.40;99.90
935;DHT22;454;53.254;10.400;2023-05-20T05:19:04;12.50;99.90
935;DHT22;454;53.254;10.400;2023-05-20T05:21:31;12.50;99.90
935;DHT22;454;53.254;10.400;2023-05-20T05:23:58;12.50;99.90
935;DHT22;454;53.254;10.400;2023-05-20T05:26:26;12.50;99.90
935;DHT22;454;53.254;10.400;2023-05-20T05:28:53;12.50;99.90
935;DHT22;454;53.254;10.400;2023-05-20T05:31:20;12.50;99.90
935;DHT22;454;53.254;10.400;2023-05-20T05:33:47;12.50;99.90
935;DHT22;454;53.254;10.400;2023-05-20T05:36:14;12.30;99.90
935;DHT22;454;53.254;10.400;2023-05-20T05:38:41;12.40;99.90
935;DHT22;454;53.254;10.400;2023-05-20T05:41:08;12.40;99.90
935;DHT22;454;53.254;10.400;2023-05-20T05:43:36;12.40;99.90
935;DHT22;454;53.254;10.400;2023-05-20T05:46:03;12.40;99.90
935;DHT22;454;53.254;10.400;2023-05-20T05:48:31;12.50;99.90
935;DHT22;454;53.254;10.400;2023-05-20T05:50:57;12.60;99.90
935;DHT22;454;53.254;10.400;2023-05-20T05:53:24;12.90;99.90
935;DHT22;454;53.254;10.400;2023-05-20T05:55:51;12.90;99.90
935;DHT22;454;53.254;10.400;2023-05-20T05:58:17;13.10;99.90
935;DHT22;454;53.254;10.400;2023-05-20T06:00:46;13.40;99.90
935;DHT22;454;53.254;10.400;2023-05-20T06:03:12;13.80;99.90
935;DHT22;454;53.254;10.400;2023-05-20T06:05:39;14.20;99.90
935;DHT22;454;53.254;10.400;2023-05-20T06:08:06;14.70;99.90
935;DHT22;454;53.254;10.400;2023-05-20T06:10:33;15.10;99.90
935;DHT22;454;53.254;10.400;2023-05-20T06:13:00;15.50;99.90
935;DHT22;454;53.254;10.400;2023-05-20T06:15:26;15.70;99.90
935;DHT22;454;53.254;10.400;2023-05-20T06:17:55;15.90;99.90
935;DHT22;454;53.254;10.400;2023-05-20T06:20:21;16.20;99.90
935;DHT22;454;53.254;10.400;2023-05-20T06:22:48;16.40;99.90
935;DHT22;454;53.254;10.400;2023-05-20T06:25:15;16.50;99.90
935;DHT22;454;53.254;10.400;2023-05-20T06:27:42;16.50;99.90
935;DHT22;454;53.254;10.400;2023-05-20T06:30:09;16.60;99.90
935;DHT22;454;53.254;10.400;2023-05-20T06:32:36;16.70;99.90
935;DHT22;454;53.254;10.400;2023-05-20T06:35:05;17.00;99.90
935;DHT22;454;53.254;10.400;2023-05-20T06:37:32;17.40;99.90
935;DHT22;454;53.254;10.400;2023-05-20T06:39:59;17.50;99.90
935;DHT22;454;53.254;10.400;2023-05-20T06:42:26;17.80;99.90
935;DHT22;454;53.254;10.400;2023-05-20T06:44:53;17.50;99.90
935;DHT22;454;53.254;10.400;2023-05-20T06:47:20;17.80;99.90
935;DHT22;454;53.254;10.400;2023-05-20T06:49:46;18.20;99.90
935;DHT22;454;53.254;10.400;2023-05-20T06:52:14;18.60;99.90
935;DHT22;454;53.254;10.400;2023-05-20T06:54:41;18.70;99.90
935;DHT22;454;53.254;10.400;2023-05-20T06:57:09;18.80;99.90
935;DHT22;454;53.254;10.400;2023-05-20T06:59:36;18.90;99.90
935;DHT22;454;53.254;10.400;2023-05-20T07:02:03;19.00;99.90
935;DHT22;454;53.254;10.400;2023-05-20T07:04:30;18.80;99.90
935;DHT22;454;53.254;10.400;2023-05-20T07:06:57;18.70;99.90
935;DHT22;454;53.254;10.400;2023-05-20T07:09:25;18.70;99.90
935;DHT22;454;53.254;10.400;2023-05-20T07:11:52;19.30;99.90
935;DHT22;454;53.254;10.400;2023-05-20T07:14:19;19.60;99.90
935;DHT22;454;53.254;10.400;2023-05-20T07:16:46;20.00;99.90
935;DHT22;454;53.254;10.400;2023-05-20T07:19:12;20.10;99.90
935;DHT22;454;53.254;10.400;2023-05-20T07:21:40;20.00;99.90
935;DHT22;454;53.254;10.400;2023-05-20T07:24:06;19.80;99.90
935;DHT22;454;53.254;10.400;2023-05-20T07:26:34;19.80;99.90
935;DHT22;454;53.254;10.400;2023-05-20T07:29:02;20.10;99.90
935;DHT22;454;53.254;10.400;2023-05-20T07:31:29;20.50;99.90
935;DHT22;454;53.254;10.400;2023-05-20T07:33:56;21.20;99.90
935;DHT22;454;53.254;10.400;2023-05-20T07:36:22;21.50;99.90
935;DHT22;454;53.254;10.400;2023-05-20T07:38:49;21.50;99.90
935;DHT22;454;53.254;10.400;2023-05-20T07:41:16;21.20;99.90
935;DHT22;454;53.254;10.400;2023-05-20T07:43:44;20.90;99.90
935;DHT22;454;53.254;10.400;2023-05-20T07:46:11;21.10;99.90
935;DHT22;454;53.254;10.400;2023-05-20T07:48:38;21.00;99.90
935;DHT22;454;53.254;10.400;2023-05-20T07:51:05;20.70;99.90
935;DHT22;454;53.254;10.400;2023-05-20T07:53:31;20.30;99.90
935;DHT22;454;53.254;10.400;2023-05-20T07:55:59;20.30;99.90
935;DHT22;454;53.254;10.400;2023-05-20T07:58:26;20.30;99.90
935;DHT22;454;53.254;10.400;2023-05-20T08:00:54;20.30;99.90
935;DHT22;454;53.254;10.400;2023-05-20T08:03:21;20.20;99.90
935;DHT22;454;53.254;10.400;2023-05-20T08:05:48;19.70;99.90
935;DHT22;454;53.254;10.400;2023-05-20T08:08:15;18.90;99.90
935;DHT22;454;53.254;10.400;2023-05-20T08:10:42;18.70;99.90
935;DHT22;454;53.254;10.400;2023-05-20T08:13:09;18.60;99.90
935;DHT22;454;53.254;10.400;2023-05-20T08:15:35;18.50;99.90
935;DHT22;454;53.254;10.400;2023-05-20T08:18:04;18.30;99.90
935;DHT22;454;53.254;10.400;2023-05-20T08:20:30;18.10;99.90
935;DHT22;454;53.254;10.400;2023-05-20T08:22:57;18.10;99.90
935;DHT22;454;53.254;10.400;2023-05-20T08:25:24;17.90;99.90
935;DHT22;454;53.254;10.400;2023-05-20T08:27:50;17.60;99.90
935;DHT22;454;53.254;10.400;2023-05-20T08:30:17;17.10;99.90
935;DHT22;454;53.254;10.400;2023-05-20T08:32:44;16.80;99.90
935;DHT22;454;53.254;10.400;2023-05-20T08:35:12;16.90;99.90
935;DHT22;454;53.254;10.400;2023-05-20T08:37:39;17.20;99.90
935;DHT22;454;53.254;10.400;2023-05-20T08:40:06;17.60;99.90
935;DHT22;454;53.254;10.400;2023-05-20T08:42:34;18.00;99.90
935;DHT22;454;53.254;10.400;2023-05-20T08:45:01;18.10;99.90
935;DHT22;454;53.254;10.400;2023-05-20T08:47:28;18.00;99.90
935;DHT22;454;53.254;10.400;2023-05-20T08:49:55;17.90;99.90
935;DHT22;454;53.254;10.400;2023-05-20T08:52:23;17.60;99.90
935;DHT22;454;53.254;10.400;2023-05-20T08:54:51;17.40;99.90
935;DHT22;454;53.254;10.400;2023-05-20T08:57:18;17.20;99.90
935;DHT22;454;53.254;10.400;2023-05-20T08:59:45;17.20;99.90
935;DHT22;454;53.254;10.400;2023-05-20T09:02:12;17.20;99.90
935;DHT22;454;53.254;10.400;2023-05-20T09:04:39;17.10;99.90
935;DHT22;454;53.254;10.400;2023-05-20T09:07:06;17.10;99.90
935;DHT22;454;53.254;10.400;2023-05-20T09:09:34;16.80;99.90
935;DHT22;454;53.254;10.400;2023-05-20T09:12:01;16.70;99.90
935;DHT22;454;53.254;10.400;2023-05-20T09:14:29;16.70;99.90
935;DHT22;454;53.254;10.400;2023-05-20T09:16:55;16.80;99.90
935;DHT22;454;53.254;10.400;2023-05-20T09:19:22;16.80;99.90
935;DHT22;454;53.254;10.400;2023-05-20T09:21:51;17.00;99.90
935;DHT22;454;53.254;10.400;2023-05-20T09:24:21;16.90;99.90
935;DHT22;454;53.254;10.400;2023-05-20T09:26:49;16.90;99.90
935;DHT22;454;53.254;10.400;2023-05-20T09:29:16;17.00;99.90
935;DHT22;454;53.254;10.400;2023-05-20T09:31:44;17.10;99.90
935;DHT22;454;53.254;10.400;2023-05-20T09:34:11;17.30;99.90
935;DHT22;454;53.254;10.400;2023-05-20T09:36:39;17.50;99.90
935;DHT22;454;53.254;10.400;2023-05-20T09:39:08;17.60;99.90
935;DHT22;454;53.254;10.400;2023-05-20T09:41:38;17.90;99.90
935;DHT22;454;53.254;10.400;2023-05-20T09:44:11;17.90;99.90
935;DHT22;454;53.254;10.400;2023-05-20T09:46:39;17.70;99.90
935;DHT22;454;53.254;10.400;2023-05-20T09:49:07;17.60;99.90
935;DHT22;454;53.254;10.400;2023-05-20T09:51:34;17.70;99.90
935;DHT22;454;53.254;10.400;2023-05-20T09:54:01;17.90;99.90
935;DHT22;454;53.254;10.400;2023-05-20T09:56:30;17.80;99.90
935;DHT22;454;53.254;10.400;2023-05-20T09:58:57;17.60;99.90
935;DHT22;454;53.254;10.400;2023-05-20T10:01:26;17.50;99.90
935;DHT22;454;53.254;10.400;2023-05-20T10:03:54;17.40;99.90
935;DHT22;454;53.254;10.400;2023-05-20T10:06:35;17.20;99.90
935;DHT22;454;53.254;10.400;2023-05-20T10:09:35;17.10;99.90
935;DHT22;454;53.254;10.400;2023-05-20T10:12:10;17.10;99.90
935;DHT22;454;53.254;10.400;2023-05-20T10:14:48;17.40;99.90
935;DHT22;454;53.254;10.400;2023-05-20T10:17:22;17.50;99.90
935;DHT22;454;53.254;10.400;2023-05-20T10:19:56;17.50;99.90
935;DHT22;454;53.254;10.400;2023-05-20T10:22:28;17.50;99.90
935;DHT22;454;53.254;10.400;2023-05-20T10:25:00;17.40;99.90
935;DHT22;454;53.254;10.400;2023-05-20T10:27:41;17.40;99.90
935;DHT22;454;53.254;10.400;2023-05-20T10:30:15;17.20;99.90
935;DHT22;454;53.254;10.400;2023-05-20T10:32:53;17.20;99.90
935;DHT22;454;53.254;10.400;2023-05-20T10:35:23;17.20;99.90
935;DHT22;454;53.254;10.400;2023-05-20T10:37:52;17.10;99.90
935;DHT22;454;53.254;10.400;2023-05-20T10:40:20;17.00;99.90
935;DHT22;454;53.254;10.400;2023-05-20T10:42:47;16.90;99.90
935;DHT22;454;53.254;10.400;2023-05-20T10:45:24;16.90;99.90
935;DHT22;454;53.254;10.400;2023-05-20T10:47:56;17.00;99.90
935;DHT22;454;53.254;10.400;2023-05-20T10:50:26;17.00;99.90
935;DHT22;454;53.254;10.400;2023-05-20T10:52:54;17.00;99.90
935;DHT22;454;53.254;10.400;2023-05-20T10:55:21;17.00;99.90
935;DHT22;454;53.254;10.400;2023-05-20T10:57:48;17.10;99.90
935;DHT22;454;53.254;10.400;2023-05-20T11:00:17;17.10;99.90
935;DHT22;454;53.254;10.400;2023-05-20T11:02:46;17.10;99.90
935;DHT22;454;53.254;10.400;2023-05-20T11:05:16;17.00;99.90
935;DHT22;454;53.254;10.400;2023-05-20T11:07:43;17.00;99.90
935;DHT22;454;53.254;10.400;2023-05-20T11:10:10;16.80;99.90
935;DHT22;454;53.254;10.400;2023-05-20T11:12:37;16.80;99.90
935;DHT22;454;53.254;10.400;2023-05-20T11:15:05;16.90;99.90
935;DHT22;454;53.254;10.400;2023-05-20T11:17:32;17.10;99.90
935;DHT22;454;53.254;10.400;2023-05-20T11:19:59;17.10;99.90
935;DHT22;454;53.254;10.400;2023-05-20T11:22:28;17.00;99.90
935;DHT22;454;53.254;10.400;2023-05-20T11:24:54;16.90;99.90
935;DHT22;454;53.254;10.400;2023-05-20T11:27:21;16.70;99.90
935;DHT22;454;53.254;10.400;2023-05-20T11:29:49;16.60;99.90
935;DHT22;454;53.254;10.400;2023-05-20T11:32:18;16.60;99.90
935;DHT22;454;53.254;10.400;2023-05-20T11:34:50;16.70;99.90
935;DHT22;454;53.254;10.400;2023-05-20T11:37:17;16.70;99.90
935;DHT22;454;53.254;10.400;2023-05-20T11:39:47;16.70;99.90
935;DHT22;454;53.254;10.400;2023-05-20T11:42:14;16.70;99.90
935;DHT22;454;53.254;10.400;2023-05-20T11:44:42;16.70;99.90
935;DHT22;454;53.254;10.400;2023-05-20T11:47:10;16.80;99.90
935;DHT22;454;53.254;10.400;2023-05-20T11:49:39;16.90;99.90
935;DHT22;454;53.254;10.400;2023-05-20T11:52:08;16.80;99.90
935;DHT22;454;53.254;10.400;2023-05-20T11:54:36;16.80;99.90
935;DHT22;454;53.254;10.400;2023-05-20T11:57:04;16.80;99.90
935;DHT22;454;53.254;10.400;2023-05-20T11:59:31;16.70;99.90
935;DHT22;454;53.254;10.400;2023-05-20T12:01:58;16.70;99.90
935;DHT22;454;53.254;10.400;2023-05-20T12:04:25;16.50;99.90
935;DHT22;454;53.254;10.400;2023-05-20T12:06:52;16.50;99.90
935;DHT22;454;53.254;10.400;2023-05-20T12:09:20;16.70;99.90
935;DHT22;454;53.254;10.400;2023-05-20T12:11:46;16.80;99.90
935;DHT22;454;53.254;10.400;2023-05-20T12:14:15;16.80;99.90
935;DHT22;454;53.254;10.400;2023-05-20T12:16:41;16.90;99.90
935;DHT22;454;53.254;10.400;2023-05-20T12:19:08;17.00;99.90
935;DHT22;454;53.254;10.400;2023-05-20T12:21:35;16.90;99.90
935;DHT22;454;53.254;10.400;2023-05-20T12:24:02;16.90;99.90
935;DHT22;454;53.254;10.400;2023-05-20T12:26:31;16.90;99.90
935;DHT22;454;53.254;10.400;2023-05-20T12:28:59;16.80;99.90
935;DHT22;454;53.254;10.400;2023-05-20T12:31:28;16.80;99.90
935;DHT22;454;53.254;10.400;2023-05-20T12:33:54;16.80;99.90
935;DHT22;454;53.254;10.400;2023-05-20T12:36:21;16.90;99.90
935;DHT22;454;53.254;10.400;2023-05-20T12:38:48;17.00;99.90
935;DHT22;454;53.254;10.400;2023-05-20T12:41:15;17.00;99.90
935;DHT22;454;53.254;10.400;2023-05-20T12:43:41;17.10;99.90
935;DHT22;454;53.254;10.400;2023-05-20T12:46:08;17.00;99.90
935;DHT22;454;53.254;10.400;2023-05-20T12:48:36;17.10;99.90
935;DHT22;454;53.254;10.400;2023-05-20T12:51:04;17.10;99.90
935;DHT22;454;53.254;10.400;2023-05-20T12:53:30;17.20;99.90
935;DHT22;454;53.254;10.400;2023-05-20T12:55:57;17.20;99.90
935;DHT22;454;53.254;10.400;2023-05-20T12:58:24;17.20;99.90
935;DHT22;454;53.254;10.400;2023-05-20T13:00:51;17.20;99.90
935;DHT22;454;53.254;10.400;2023-05-20T13:03:17;17.20;99.90
935;DHT22;454;53.254;10.400;2023-05-20T13:05:46;17.20;99.90
935;DHT22;454;53.254;10.400;2023-05-20T13:08:13;17.10;99.90
935;DHT22;454;53.254;10.400;2023-05-20T13:10:40;17.00;99.90
935;DHT22;454;53.254;10.400;2023-05-20T13:13:06;17.00;99.90
935;DHT22;454;53.254;10.400;2023-05-20T13:15:33;16.90;99.90
935;DHT22;454;53.254;10.400;2023-05-20T13:18:01;16.90;99.90
935;DHT22;454;53.254;10.400;2023-05-20T13:20:30;16.90;99.90
935;DHT22;454;53.254;10.400;2023-05-20T13:22:58;17.10;99.90
935;DHT22;454;53.254;10.400;2023-05-20T13:25:25;17.20;99.90
935;DHT22;454;53.254;10.400;2023-05-20T13:27:52;17.30;99.90
935;DHT22;454;53.254;10.400;2023-05-20T13:30:19;17.30;99.90
935;DHT22;454;53.254;10.400;2023-05-20T13:32:45;17.20;99.90
935;DHT22;454;53.254;10.400;2023-05-20T13:35:12;17.00;99.90
935;DHT22;454;53.254;10.400;2023-05-20T13:37:41;17.00;99.90
935;DHT22;454;53.254;10.400;2023-05-20T13:40:10;17.00;99.90
935;DHT22;454;53.254;10.400;2023-05-20T13:42:37;16.90;99.90
935;DHT22;454;53.254;10.400;2023-05-20T13:45:05;16.90;99.90
935;DHT22;454;53.254;10.400;2023-05-20T13:47:32;17.10;99.90
935;DHT22;454;53.254;10.400;2023-05-20T13:49:59;17.20;99.90
935;DHT22;454;53.254;10.400;2023-05-20T13:52:25;17.30;99.90
935;DHT22;454;53.254;10.400;2023-05-20T13:54:52;17.30;99.90
935;DHT22;454;53.254;10.400;2023-05-20T13:57:20;17.30;99.90
935;DHT22;454;53.254;10.400;2023-05-20T13:59:47;17.40;99.90
935;DHT22;454;53.254;10.400;2023-05-20T14:02:14;17.40;99.90
935;DHT22;454;53.254;10.400;2023-05-20T14:04:41;17.60;99.90
935;DHT22;454;53.254;10.400;2023-05-20T14:07:09;17.60;99.90
935;DHT22;454;53.254;10.400;2023-05-20T14:09:36;17.60;99.90
935;DHT22;454;53.254;10.400;2023-05-20T14:12:03;17.70;99.90
935;DHT22;454;53.254;10.400;2023-05-20T14:14:32;17.80;99.90
935;DHT22;454;53.254;10.400;2023-05-20T14:16:58;17.90;99.90
935;DHT22;454;53.254;10.400;2023-05-20T14:19:25;17.90;99.90
935;DHT22;454;53.254;10.400;2023-05-20T14:21:52;17.80;99.90
935;DHT22;454;53.254;10.400;2023-05-20T14:24:19;17.70;99.90
935;DHT22;454;53.254;10.400;2023-05-20T14:26:45;17.60;99.90
935;DHT22;454;53.254;10.400;2023-05-20T14:29:12;17.40;99.90
935;DHT22;454;53.254;10.400;2023-05-20T14:31:41;17.40;99.90
935;DHT22;454;53.254;10.400;2023-05-20T14:34:07;17.30;99.90
935;DHT22;454;53.254;10.400;2023-05-20T14:36:34;17.20;99.90
935;DHT22;454;53.254;10.400;2023-05-20T14:39:01;17.20;99.90
935;DHT22;454;53.254;10.400;2023-05-20T14:41:28;17.30;99.90
935;DHT22;454;53.254;10.400;2023-05-20T14:43:55;17.30;99.90
935;DHT22;454;53.254;10.400;2023-05-20T14:46:21;17.30;99.90
935;DHT22;454;53.254;10.400;2023-05-20T14:48:50;17.20;99.90
935;DHT22;454;53.254;10.400;2023-05-20T14:51:17;17.30;99.90
935;DHT22;454;53.254;10.400;2023-05-20T14:53:43;17.40;99.90
935;DHT22;454;53.254;10.400;2023-05-20T14:56:10;17.50;99.90
935;DHT22;454;53.254;10.400;2023-05-20T14:58:37;17.50;99.90
935;DHT22;454;53.254;10.400;2023-05-20T15:01:04;17.40;99.90
935;DHT22;454;53.254;10.400;2023-05-20T15:03:30;17.40;99.90
935;DHT22;454;53.254;10.400;2023-05-20T15:05:59;17.50;99.90
935;DHT22;454;53.254;10.400;2023-05-20T15:08:25;17.60;99.90
935;DHT22;454;53.254;10.400;2023-05-20T15:10:52;17.70;99.90
935;DHT22;454;53.254;10.400;2023-05-20T15:13:19;17.80;99.90
935;DHT22;454;53.254;10.400;2023-05-20T15:15:45;17.80;99.90
935;DHT22;454;53.254;10.400;2023-05-20T15:18:13;18.00;99.90
935;DHT22;454;53.254;10.400;2023-05-20T15:20:39;18.10;99.90
935;DHT22;454;53.254;10.400;2023-05-20T15:23:07;18.00;99.90
935;DHT22;454;53.254;10.400;2023-05-20T15:25:34;18.10;99.90
935;DHT22;454;53.254;10.400;2023-05-20T15:28:01;18.20;99.90
935;DHT22;454;53.254;10.400;2023-05-20T15:30:28;18.10;99.90
935;DHT22;454;53.254;10.400;2023-05-20T15:32:54;18.10;99.90
935;DHT22;454;53.254;10.400;2023-05-20T15:35:22;17.90;99.90
935;DHT22;454;53.254;10.400;2023-05-20T15:37:48;17.90;99.90
935;DHT22;454;53.254;10.400;2023-05-20T15:40:17;17.80;99.90
935;DHT22;454;53.254;10.400;2023-05-20T15:42:43;17.80;99.90
935;DHT22;454;53.254;10.400;2023-05-20T15:45:11;17.80;99.90
935;DHT22;454;53.254;10.400;2023-05-20T15:47:38;17.70;99.90
935;DHT22;454;53.254;10.400;2023-05-20T15:50:06;17.60;99.90
935;DHT22;454;53.254;10.400;2023-05-20T15:52:33;17.50;99.90
935;DHT22;454;53.254;10.400;2023-05-20T15:55:00;17.40;99.90
935;DHT22;454;53.254;10.400;2023-05-20T15:57:28;17.40;99.90
935;DHT22;454;53.254;10.400;2023-05-20T15:59:55;17.30;99.90
935;DHT22;454;53.254;10.400;2023-05-20T16:02:22;17.40;99.90
935;DHT22;454;53.254;10.400;2023-05-20T16:04:49;17.40;99.90
935;DHT22;454;53.254;10.400;2023-05-20T16:07:16;17.40;99.90
935;DHT22;454;53.254;10.400;2023-05-20T16:09:43;17.50;99.90
935;DHT22;454;53.254;10.400;2023-05-20T16:12:10;17.40;99.90
935;DHT22;454;53.254;10.400;2023-05-20T16:14:38;17.40;99.90
935;DHT22;454;53.254;10.400;2023-05-20T16:17:05;17.40;99.90
935;DHT22;454;53.254;10.400;2023-05-20T16:19:32;17.40;99.90
935;DHT22;454;53.254;10.400;2023-05-20T16:21:59;17.40;99.90
935;DHT22;454;53.254;10.400;2023-05-20T16:24:25;17.30;99.90
935;DHT22;454;53.254;10.400;2023-05-20T16:26:53;17.30;99.90
935;DHT22;454;53.254;10.400;2023-05-20T16:29:19;17.30;99.90
935;DHT22;454;53.254;10.400;2023-05-20T16:31:48;17.20;99.90
935;DHT22;454;53.254;10.400;2023-05-20T16:34:14;17.20;99.90
935;DHT22;454;53.254;10.400;2023-05-20T16:36:41;17.20;99.90
935;DHT22;454;53.254;10.400;2023-05-20T16:39:09;17.20;99.90
935;DHT22;454;53.254;10.400;2023-05-20T16:41:36;17.30;99.90
935;DHT22;454;53.254;10.400;2023-05-20T16:44:03;17.20;99.90
935;DHT22;454;53.254;10.400;2023-05-20T16:46:30;17.20;99.90
935;DHT22;454;53.254;10.400;2023-05-20T16:48:58;17.20;99.90
935;DHT22;454;53.254;10.400;2023-05-20T16:51:25;17.20;99.90
935;DHT22;454;53.254;10.400;2023-05-20T16:53:52;17.20;99.90
935;DHT22;454;53.254;10.400;2023-05-20T16:56:19;17.20;99.90
935;DHT22;454;53.254;10.400;2023-05-20T16:58:46;17.10;99.90
935;DHT22;454;53.254;10.400;2023-05-20T17:01:12;17.10;99.90
935;DHT22;454;53.254;10.400;2023-05-20T17:03:39;17.10;99.90
935;DHT22;454;53.254;10.400;2023-05-20T17:06:07;17.10;99.90
935;DHT22;454;53.254;10.400;2023-05-20T17:08:34;17.00;99.90
935;DHT22;454;53.254;10.400;2023-05-20T17:11:01;16.90;99.90
935;DHT22;454;53.254;10.400;2023-05-20T17:13:28;17.00;99.90
935;DHT22;454;53.254;10.400;2023-05-20T17:15:54;17.00;99.90
935;DHT22;454;53.254;10.400;2023-05-20T17:18:21;17.00;99.90
935;DHT22;454;53.254;10.400;2023-05-20T17:20:48;17.10;99.90
935;DHT22;454;53.254;10.400;2023-05-20T17:23:16;17.10;99.90
935;DHT22;454;53.254;10.400;2023-05-20T17:25:43;17.00;99.90
935;DHT22;454;53.254;10.400;2023-05-20T17:28:09;17.00;99.90
935;DHT22;454;53.254;10.400;2023-05-20T17:30:36;17.00;99.90
935;DHT22;454;53.254;10.400;2023-05-20T17:33:03;17.00;99.90
935;DHT22;454;53.254;10.400;2023-05-20T17:35:30;16.90;99.90
935;DHT22;454;53.254;10.400;2023-05-20T17:37:57;16.90;99.90
935;DHT22;454;53.254;10.400;2023-05-20T17:40:25;16.90;99.90
935;DHT22;454;53.254;10.400;2023-05-20T17:42:52;16.90;99.90
935;DHT22;454;53.254;10.400;2023-05-20T17:45:18;16.90;99.90
935;DHT22;454;53.254;10.400;2023-05-20T17:47:45;16.80;99.90
935;DHT22;454;53.254;10.400;2023-05-20T17:50:12;16.80;99.90
935;DHT22;454;53.254;10.400;2023-05-20T17:52:39;16.80;99.90
935;DHT22;454;53.254;10.400;2023-05-20T17:55:06;16.70;99.90
935;DHT22;454;53.254;10.400;2023-05-20T17:57:35;16.70;99.90
935;DHT22;454;53.254;10.400;2023-05-20T18:00:02;16.70;99.90
935;DHT22;454;53.254;10.400;2023-05-20T18:02:30;16.70;99.90
935;DHT22;454;53.254;10.400;2023-05-20T18:04:57;16.70;99.90
935;DHT22;454;53.254;10.400;2023-05-20T18:07:24;16.70;99.90
935;DHT22;454;53.254;10.400;2023-05-20T18:09:51;16.60;99.90
935;DHT22;454;53.254;10.400;2023-05-20T18:12:18;16.60;99.90
935;DHT22;454;53.254;10.400;2023-05-20T18:14:46;16.60;99.90
935;DHT22;454;53.254;10.400;2023-05-20T18:17:13;16.60;99.90
935;DHT22;454;53.254;10.400;2023-05-20T18:19:40;16.60;99.90
935;DHT22;454;53.254;10.400;2023-05-20T18:22:07;16.50;99.90
935;DHT22;454;53.254;10.400;2023-05-20T18:24:33;16.50;99.90
935;DHT22;454;53.254;10.400;2023-05-20T18:27:00;16.50;99.90
935;DHT22;454;53.254;10.400;2023-05-20T18:29:27;16.50;99.90
935;DHT22;454;53.254;10.400;2023-05-20T18:31:55;16.50;99.90
935;DHT22;454;53.254;10.400;2023-05-20T18:34:22;16.50;99.90
935;DHT22;454;53.254;10.400;2023-05-20T18:36:48;16.40;99.90
935;DHT22;454;53.254;10.400;2023-05-20T18:39:15;16.40;99.90
935;DHT22;454;53.254;10.400;2023-05-20T18:41:45;16.30;99.90
935;DHT22;454;53.254;10.400;2023-05-20T18:44:12;16.20;99.90
935;DHT22;454;53.254;10.400;2023-05-20T18:46:39;16.20;99.90
935;DHT22;454;53.254;10.400;2023-05-20T18:49:07;16.10;99.90
935;DHT22;454;53.254;10.400;2023-05-20T18:51:35;16.10;99.90
935;DHT22;454;53.254;10.400;2023-05-20T18:54:02;16.00;99.90
935;DHT22;454;53.254;10.400;2023-05-20T18:56:29;16.00;99.90
935;DHT22;454;53.254;10.400;2023-05-20T18:58:57;16.00;99.90
935;DHT22;454;53.254;10.400;2023-05-20T19:01:24;15.90;99.90
935;DHT22;454;53.254;10.400;2023-05-20T19:03:50;15.90;99.90
935;DHT22;454;53.254;10.400;2023-05-20T19:06:19;15.80;99.90
935;DHT22;454;53.254;10.400;2023-05-20T19:08:46;15.80;99.90
935;DHT22;454;53.254;10.400;2023-05-20T19:11:13;15.80;99.90
935;DHT22;454;53.254;10.400;2023-05-20T19:13:40;15.70;99.90
935;DHT22;454;53.254;10.400;2023-05-20T19:16:07;15.70;99.90
935;DHT22;454;53.254;10.400;2023-05-20T19:18:34;15.70;99.90
935;DHT22;454;53.254;10.400;2023-05-20T19:21:00;15.60;99.90
935;DHT22;454;53.254;10.400;2023-05-20T19:23:28;15.60;99.90
935;DHT22;454;53.254;10.400;2023-05-20T19:25:56;15.60;99.90
935;DHT22;454;53.254;10.400;2023-05-20T19:28:23;15.50;99.90
935;DHT22;454;53.254;10.400;2023-05-20T19:30:50;15.50;99.90
935;DHT22;454;53.254;10.400;2023-05-20T19:33:17;15.40;99.90
935;DHT22;454;53.254;10.400;2023-05-20T19:35:43;15.30;99.90
935;DHT22;454;53.254;10.400;2023-05-20T19:38:10;15.30;99.90
935;DHT22;454;53.254;10.400;2023-05-20T19:40:38;15.30;99.90
935;DHT22;454;53.254;10.400;2023-05-20T19:43:05;15.30;99.90
935;DHT22;454;53.254;10.400;2023-05-20T19:45:32;15.20;99.90
935;DHT22;454;53.254;10.400;2023-05-20T19:48:00;15.20;99.90
935;DHT22;454;53.254;10.400;2023-05-20T19:50:27;15.20;99.90
935;DHT22;454;53.254;10.400;2023-05-20T19:52:53;15.20;99.90
935;DHT22;454;53.254;10.400;2023-05-20T19:55:20;15.20;99.90
935;DHT22;454;53.254;10.400;2023-05-20T19:57:48;15.20;99.90
935;DHT22;454;53.254;10.400;2023-05-20T20:00:17;15.20;99.90
935;DHT22;454;53.254;10.400;2023-05-20T20:02:44;15.20;99.90
935;DHT22;454;53.254;10.400;2023-05-20T20:05:11;15.20;99.90
935;DHT22;454;53.254;10.400;2023-05-20T20:07:38;15.20;99.90
935;DHT22;454;53.254;10.400;2023-05-20T20:10:06;15.20;99.90
935;DHT22;454;53.254;10.400;2023-05-20T20:12:33;15.20;99.90
935;DHT22;454;53.254;10.400;2023-05-20T20:15:01;15.20;99.90
935;DHT22;454;53.254;10.400;2023-05-20T20:17:28;15.10;99.90
935;DHT22;454;53.254;10.400;2023-05-20T20:19:55;15.10;99.90
935;DHT22;454;53.254;10.400;2023-05-20T20:22:22;15.10;99.90